Ana Sayfa
METAR-TAF:

METAR-TAF

Havaalanları :

Asheboro Regional Airport

Asheboro, Kuzey Carolina, Amerika Birleşik Devletleri

Enlem: 35-39-14N, Boylam: 079-53-42W, yükseklik: 205 m

Güncel hava durumu gözlemi

Rapor saat 10:35 UTC de 15 dakika önce yapıldı.
Rüzgar kuzeydan 7 kt
Sıcaklık 4°C
Nem 100%
Basınç 1026 hPa
Görüş mesafesi: 16.1 km
1600 ft yükseklikte parçalı bulutlu
7000 ft yükseklikte parçalı çok bulutlu
11000 ft yükseklikte çok bulutlu

METAR: KHBI 111035Z AUTO 36007KT 10SM SCT016 BKN070 OVC110 04/04 A3030 RMK AO2 T00410041

Saat: 05:50 (10:50 UTC)


TAF: eksik

4.000'den fazla havaalanı için hava durumu gözlemleri ve tahminleri (METAR ve TAF raporları).

Kullanılabilir istasyonlar harita üzerinde sarı ve kırmızı noktalarla gösterilir.

İstasyonun adını görmek için fareyi noktanın üzerinde gezdirin.

Sonrasında hava gözlem ve tahminlerini görmek için tıklayın.

Haritayı değiştirmek için: yaklaştırmak için siyah artı işaretli yeşil düğmeye ve uzaklaştırmak için de eksi işaretli düğmeye hızla tıklayın; bitişik haritalar için yeşil okları kullanın.


METAR-TAF: